Time;durP1;ratioP1;P1;durP2;ratioP2;P2;SDS_P1;SDS_P2;PMS_P1;PMS_P2;Temp;Humidity;BMP_temperature;BMP_pressure;BME280_temperature;BME280_humidity;BME280_pressure;Samples;Min_cycle;Max_cycle;Signal;HPM_P1;HPM_P2
2022/11/03 00:00:08;;;;;;;1999.90;999.90;;;7.50;99.90;;;;;;5085504;28;20466;-69
2022/11/03 00:02:35;;;;;;;1999.90;999.90;;;7.60;99.90;;;;;;5085012;28;20472;-69
2022/11/03 00:06:03;;;;;;;1999.90;999.90;;;7.60;99.90;;;;;;5085453;28;20446;-70
2022/11/03 00:07:49;;;;;;;1999.90;999.90;;;7.60;99.90;;;;;;5084816;28;20434;-70
2022/11/03 00:10:15;;;;;;;1999.90;999.90;;;7.60;99.90;;;;;;5086412;28;20454;-69
2022/11/03 00:12:44;;;;;;;1999.90;999.90;;;7.50;99.90;;;;;;5084957;28;20434;-70
2022/11/03 00:15:10;;;;;;;1999.90;999.90;;;7.50;99.90;;;;;;5085763;28;20445;-69
2022/11/03 00:17:37;;;;;;;1999.90;999.90;;;7.50;99.90;;;;;;5085659;28;20478;-69
2022/11/03 00:20:05;;;;;;;1999.90;999.90;;;7.50;99.90;;;;;;5085338;28;20458;-69
2022/11/03 00:22:32;;;;;;;1999.90;999.90;;;7.40;99.90;;;;;;5084098;28;21044;-69
2022/11/03 00:25:00;;;;;;;1999.90;999.90;;;7.40;99.90;;;;;;5084609;28;20499;-69
2022/11/03 00:27:27;;;;;;;1999.90;999.90;;;7.40;99.90;;;;;;5086981;28;20477;-69
2022/11/03 00:29:55;;;;;;;1999.90;999.90;;;7.40;99.90;;;;;;5087932;28;20454;-69
2022/11/03 00:32:22;;;;;;;1999.90;999.90;;;7.30;99.90;;;;;;5086272;28;20465;-69
2022/11/03 00:34:49;;;;;;;1999.90;999.90;;;7.30;99.90;;;;;;5087510;28;20442;-69
2022/11/03 00:37:15;;;;;;;1999.90;999.90;;;7.20;99.90;;;;;;5087594;28;20438;-70
2022/11/03 00:39:42;;;;;;;1999.90;999.90;;;7.20;99.90;;;;;;5086384;28;20466;-70
2022/11/03 00:42:10;;;;;;;1999.90;999.90;;;7.30;99.90;;;;;;5087326;28;20524;-70
2022/11/03 00:44:37;;;;;;;1999.90;999.90;;;7.30;99.90;;;;;;5085989;28;20442;-68
2022/11/03 00:47:05;;;;;;;1999.90;999.90;;;7.40;99.90;;;;;;5087257;28;20450;-69
2022/11/03 00:49:32;;;;;;;1999.90;999.90;;;7.40;99.90;;;;;;5087056;28;20468;-70
2022/11/03 00:51:58;;;;;;;1999.90;999.90;;;7.50;99.90;;;;;;5086341;28;20446;-71
2022/11/03 00:54:36;;;;;;;1999.90;999.90;;;7.70;99.90;;;;;;5086108;28;20446;-71
2022/11/03 00:57:03;;;;;;;1999.90;999.90;;;7.70;99.90;;;;;;5085659;28;20991;-70
2022/11/03 00:59:30;;;;;;;1999.90;999.90;;;7.70;99.90;;;;;;5085525;28;20497;-70
2022/11/03 01:01:56;;;;;;;1999.90;999.90;;;7.70;99.90;;;;;;5086162;28;20446;-70
2022/11/03 01:07:09;;;;;;;1999.90;999.90;;;7.50;99.90;;;;;;5089902;28;20426;-70
2022/11/03 01:09:37;;;;;;;1999.90;999.90;;;7.50;99.90;;;;;;5090178;28;20473;-71
2022/11/03 01:12:07;;;;;;;1999.90;999.90;;;7.50;99.90;;;;;;5088857;28;20455;-70
2022/11/03 01:14:36;;;;;;;1999.90;999.90;;;7.60;99.90;;;;;;5089656;28;20963;-70
2022/11/03 01:17:05;;;;;;;1999.90;999.90;;;7.50;99.90;;;;;;5089766;28;20453;-71
2022/11/03 01:19:33;;;;;;;1999.90;999.90;;;7.50;99.90;;;;;;5089614;28;20492;-71
2022/11/03 01:22:00;;;;;;;1999.90;999.90;;;7.50;99.90;;;;;;5089202;28;20442;-70
2022/11/03 01:24:27;;;;;;;1999.90;999.90;;;7.40;99.90;;;;;;5089566;28;20442;-70
2022/11/03 01:26:53;;;;;;;1999.90;999.90;;;7.40;99.90;;;;;;5090242;28;20446;-70
2022/11/03 01:29:20;;;;;;;1999.90;999.90;;;7.40;99.90;;;;;;5089883;28;20465;-71
2022/11/03 01:31:47;;;;;;;1999.90;999.90;;;7.40;99.90;;;;;;5089003;28;20450;-70
2022/11/03 01:34:15;;;;;;;1999.90;999.90;;;7.50;99.90;;;;;;5089665;28;20481;-70
2022/11/03 01:36:44;;;;;;;1999.90;999.90;;;7.50;99.90;;;;;;5090017;28;20460;-71
2022/11/03 01:39:11;;;;;;;1999.90;999.90;;;7.50;99.90;;;;;;5089443;28;21022;-70
2022/11/03 01:41:38;;;;;;;1999.90;999.90;;;7.50;99.90;;;;;;5089426;28;20438;-70
2022/11/03 01:44:24;;;;;;;1999.90;999.90;;;7.40;99.90;;;;;;5089726;28;20438;-70
2022/11/03 01:46:55;;;;;;;1999.90;999.90;;;7.40;99.90;;;;;;5090115;28;20986;-71
2022/11/03 01:49:26;;;;;;;1999.90;999.90;;;7.30;99.90;;;;;;5089687;28;20816;-71
2022/11/03 01:51:59;;;;;;;1999.90;999.90;;;7.20;99.90;;;;;;5089179;28;20442;-70
2022/11/03 01:54:28;;;;;;;1999.90;999.90;;;7.10;99.90;;;;;;5089485;28;20437;-71
2022/11/03 01:56:57;;;;;;;1999.90;999.90;;;7.00;99.90;;;;;;5089828;28;20438;-71
2022/11/03 01:59:24;;;;;;;1999.90;999.90;;;7.00;99.90;;;;;;5090334;28;20489;-70
2022/11/03 02:01:51;;;;;;;1999.90;999.90;;;7.00;99.90;;;;;;5088625;28;20446;-70
2022/11/03 02:04:23;;;;;;;1999.90;999.90;;;6.90;99.90;;;;;;5089473;28;20442;-70
2022/11/03 02:06:58;;;;;;;1999.90;999.90;;;6.90;99.90;;;;;;5089644;28;20441;-70
2022/11/03 02:09:25;;;;;;;1999.90;999.90;;;6.90;99.90;;;;;;5093249;28;20841;-70
2022/11/03 02:12:08;;;;;;;1999.90;999.90;;;6.90;99.90;;;;;;5092811;28;20833;-70
2022/11/03 02:14:37;;;;;;;1999.90;999.90;;;6.90;99.90;;;;;;5093552;28;20957;-70
2022/11/03 02:17:09;;;;;;;1999.90;999.90;;;7.00;99.90;;;;;;5093577;28;20442;-70
2022/11/03 02:19:41;;;;;;;1999.90;999.90;;;7.20;99.90;;;;;;5093479;28;20580;-71
2022/11/03 02:22:29;;;;;;;1999.90;999.90;;;7.20;99.90;;;;;;5092803;28;20450;-71
2022/11/03 02:25:05;;;;;;;1999.90;999.90;;;7.30;99.90;;;;;;5093216;28;21062;-70
2022/11/03 02:27:33;;;;;;;1999.90;999.90;;;7.30;99.90;;;;;;5093430;28;20452;-70
2022/11/03 02:30:01;;;;;;;1999.90;999.90;;;7.20;99.90;;;;;;5093362;28;20469;-70
2022/11/03 02:32:32;;;;;;;1999.90;999.90;;;7.10;99.90;;;;;;5093080;28;20476;-70
2022/11/03 02:35:03;;;;;;;1999.90;999.90;;;7.10;99.90;;;;;;5092859;28;20465;-70
2022/11/03 02:37:34;;;;;;;1999.90;999.90;;;7.10;99.90;;;;;;5093472;28;20443;-70
2022/11/03 02:40:04;;;;;;;1999.90;999.90;;;7.00;99.90;;;;;;5092955;28;20482;-70
2022/11/03 02:42:35;;;;;;;1999.90;999.90;;;7.00;99.90;;;;;;5092295;28;20456;-71
2022/11/03 02:45:07;;;;;;;1999.90;999.90;;;7.00;99.90;;;;;;5092731;28;20825;-71
2022/11/03 02:47:37;;;;;;;1999.90;999.90;;;6.90;99.90;;;;;;5093304;28;20479;-70
2022/11/03 02:50:09;;;;;;;1999.90;999.90;;;6.90;99.90;;;;;;5092650;28;20462;-70
2022/11/03 02:52:39;;;;;;;1999.90;999.90;;;6.90;99.90;;;;;;5092348;28;20442;-70
2022/11/03 02:55:12;;;;;;;1999.90;999.90;;;6.80;99.90;;;;;;5092539;28;20511;-70
2022/11/03 02:57:47;;;;;;;1999.90;999.90;;;6.70;99.90;;;;;;5092824;28;20539;-70
2022/11/03 03:00:16;;;;;;;1999.90;999.90;;;6.70;99.90;;;;;;5092666;28;20469;-70
2022/11/03 03:02:51;;;;;;;1999.90;999.90;;;6.60;99.90;;;;;;5091948;28;20447;-70
2022/11/03 03:05:20;;;;;;;1999.90;999.90;;;6.50;99.90;;;;;;5092252;28;21000;-71
2022/11/03 03:07:53;;;;;;;1999.90;999.90;;;6.50;99.90;;;;;;5092885;28;20456;-71
2022/11/03 03:10:23;;;;;;;1999.90;999.90;;;6.50;99.90;;;;;;5092904;28;20462;-70
2022/11/03 03:12:56;;;;;;;1999.90;999.90;;;6.40;99.90;;;;;;5092069;28;20442;-71
2022/11/03 03:15:36;;;;;;;1999.90;999.90;;;6.40;99.90;;;;;;5092226;28;20446;-71
2022/11/03 03:18:12;;;;;;;1999.90;999.90;;;6.40;99.90;;;;;;5092136;28;20450;-70
2022/11/03 03:20:43;;;;;;;1999.90;999.90;;;6.40;99.90;;;;;;5092220;28;20449;-69
2022/11/03 03:23:16;;;;;;;1999.90;999.90;;;6.30;99.90;;;;;;5091943;28;20453;-70
2022/11/03 03:25:48;;;;;;;1999.90;999.90;;;6.30;99.90;;;;;;5091853;28;21058;-70
2022/11/03 03:28:20;;;;;;;1999.90;999.90;;;6.40;99.90;;;;;;5091814;28;20816;-70
2022/11/03 03:30:48;;;;;;;1999.90;999.90;;;6.30;99.90;;;;;;5091883;28;20820;-71
2022/11/03 03:33:17;;;;;;;1999.90;999.90;;;6.40;99.90;;;;;;5091528;28;20442;-71
2022/11/03 03:35:48;;;;;;;1999.90;999.90;;;6.20;99.90;;;;;;5091493;28;20462;-71
2022/11/03 03:38:19;;;;;;;1999.90;999.90;;;6.20;99.90;;;;;;5091789;28;20906;-71
2022/11/03 03:40:51;;;;;;;1999.90;999.90;;;6.10;99.90;;;;;;5091595;28;20452;-71
2022/11/03 03:43:21;;;;;;;1999.90;999.90;;;6.00;99.90;;;;;;5091475;28;20449;-70
2022/11/03 03:45:50;;;;;;;1999.90;999.90;;;6.00;99.90;;;;;;5091961;28;20450;-71
2022/11/03 03:48:17;;;;;;;1999.90;999.90;;;6.00;99.90;;;;;;5091694;28;20450;-70
2022/11/03 03:50:47;;;;;;;1999.90;999.90;;;5.90;99.90;;;;;;5090647;28;20450;-71
2022/11/03 03:53:17;;;;;;;1999.90;999.90;;;5.90;99.90;;;;;;5091334;28;20965;-71
2022/11/03 03:55:47;;;;;;;1999.90;999.90;;;5.80;99.90;;;;;;5090955;28;20443;-71
2022/11/03 03:58:15;;;;;;;1999.90;999.90;;;5.80;99.90;;;;;;5091540;28;20958;-71
2022/11/03 04:00:44;;;;;;;1999.90;999.90;;;5.70;99.90;;;;;;5091043;28;20454;-71
2022/11/03 04:03:15;;;;;;;1999.90;999.90;;;5.70;99.90;;;;;;5091381;28;20451;-71
2022/11/03 04:05:42;;;;;;;1999.90;999.90;;;5.80;99.90;;;;;;5090889;28;21029;-71
2022/11/03 04:08:09;;;;;;;1999.90;999.90;;;5.80;99.90;;;;;;5091382;28;20453;-71
2022/11/03 04:10:36;;;;;;;1999.90;999.90;;;5.80;99.90;;;;;;5090625;28;21025;-71
2022/11/03 04:24:01;;;;;;;1999.90;999.90;;;5.70;99.90;;;;;;5091154;28;20973;-70
2022/11/03 04:26:29;;;;;;;1999.90;999.90;;;5.70;99.90;;;;;;5090632;28;20962;-70
2022/11/03 04:28:57;;;;;;;1999.90;999.90;;;5.70;99.90;;;;;;5090378;28;20457;-70
2022/11/03 04:31:28;;;;;;;1999.90;999.90;;;5.70;99.90;;;;;;5090038;28;20438;-70
2022/11/03 04:33:56;;;;;;;1999.90;999.90;;;5.80;99.90;;;;;;5090782;28;20450;-70
2022/11/03 04:36:24;;;;;;;1999.90;999.90;;;5.80;99.90;;;;;;5090918;28;20446;-70
2022/11/03 04:38:52;;;;;;;1999.90;999.90;;;5.80;99.90;;;;;;5090904;28;20488;-70
2022/11/03 04:41:22;;;;;;;1999.90;999.90;;;5.70;99.90;;;;;;5090446;28;20837;-70
2022/11/03 04:43:51;;;;;;;1999.90;999.90;;;5.70;99.90;;;;;;5090434;28;20931;-70
2022/11/03 04:46:26;;;;;;;1999.90;999.90;;;5.90;99.90;;;;;;5090659;28;20434;-70
2022/11/03 04:48:54;;;;;;;1999.90;999.90;;;5.90;99.90;;;;;;5090435;28;20983;-70
2022/11/03 04:51:25;;;;;;;1999.90;999.90;;;5.90;99.90;;;;;;5090448;28;20449;-70
2022/11/03 04:53:54;;;;;;;1999.90;999.90;;;5.90;99.90;;;;;;5090003;28;20500;-70
2022/11/03 04:56:24;;;;;;;1999.90;999.90;;;5.90;99.90;;;;;;5090330;28;20466;-71
2022/11/03 04:58:52;;;;;;;1999.90;999.90;;;5.90;99.90;;;;;;5088650;28;20482;-71
2022/11/03 05:01:21;;;;;;;1999.90;999.90;;;5.80;99.90;;;;;;5089166;28;20450;-71
2022/11/03 05:03:52;;;;;;;1999.90;999.90;;;5.80;99.90;;;;;;5089685;28;20442;-71
2022/11/03 05:06:21;;;;;;;1999.90;999.90;;;5.70;99.90;;;;;;5090027;28;21177;-71
2022/11/03 05:08:53;;;;;;;1999.90;999.90;;;5.70;99.90;;;;;;5090328;28;20826;-71
2022/11/03 05:11:24;;;;;;;1999.90;999.90;;;5.70;99.90;;;;;;5089916;28;20840;-71
2022/11/03 05:13:52;;;;;;;1999.90;999.90;;;5.80;99.90;;;;;;5089864;28;20805;-71
2022/11/03 05:16:19;;;;;;;1999.90;999.90;;;5.90;99.90;;;;;;5089866;28;20932;-70
2022/11/03 05:18:49;;;;;;;1999.90;999.90;;;5.90;99.90;;;;;;5090164;28;20473;-70
2022/11/03 05:21:19;;;;;;;1999.90;999.90;;;5.80;99.90;;;;;;5090029;28;21166;-70
2022/11/03 05:23:48;;;;;;;1999.90;999.90;;;5.80;99.90;;;;;;5089782;28;20478;-70
2022/11/03 05:26:18;;;;;;;1999.90;999.90;;;5.80;99.90;;;;;;5089704;28;20855;-70
2022/11/03 05:28:48;;;;;;;1999.90;999.90;;;5.80;99.90;;;;;;5090003;28;20458;-70
2022/11/03 05:31:22;;;;;;;1999.90;999.90;;;5.70;99.90;;;;;;5089696;28;20446;-71
2022/11/03 05:33:52;;;;;;;1999.90;999.90;;;5.80;99.90;;;;;;5089535;28;20472;-70
2022/11/03 05:36:22;;;;;;;1999.90;999.90;;;5.90;99.90;;;;;;5089515;28;20446;-71
2022/11/03 05:38:49;;;;;;;1999.90;999.90;;;6.00;99.90;;;;;;5089575;28;20506;-70
2022/11/03 05:41:21;;;;;;;1999.90;999.90;;;6.10;99.90;;;;;;5089634;28;21047;-70
2022/11/03 05:43:56;;;;;;;1999.90;999.90;;;6.20;99.90;;;;;;5096431;28;20446;-70
2022/11/03 05:46:23;;;;;;;1999.90;999.90;;;6.10;99.90;;;;;;5096223;28;20441;-70
2022/11/03 05:48:52;;;;;;;1999.90;999.90;;;6.10;99.90;;;;;;5096697;28;20469;-70
2022/11/03 05:51:22;;;;;;;1999.90;999.90;;;6.00;99.90;;;;;;5095927;28;20453;-70
2022/11/03 05:53:52;;;;;;;1999.90;999.90;;;5.90;99.90;;;;;;5096401;28;20468;-70
2022/11/03 05:56:21;;;;;;;1999.90;999.90;;;5.80;99.90;;;;;;5095940;28;20441;-70
2022/11/03 05:58:50;;;;;;;1999.90;999.90;;;5.80;99.90;;;;;;5096217;28;20481;-70
2022/11/03 06:01:23;;;;;;;1999.90;999.90;;;5.80;99.90;;;;;;5096078;28;20448;-71
2022/11/03 06:03:52;;;;;;;1999.90;999.90;;;5.70;99.90;;;;;;5096034;28;20449;-71
2022/11/03 06:06:22;;;;;;;1999.90;999.90;;;5.70;99.90;;;;;;5096937;28;20587;-71
2022/11/03 06:08:50;;;;;;;1999.90;999.90;;;5.70;99.90;;;;;;5096383;28;20837;-71
2022/11/03 06:11:25;;;;;;;1999.90;999.90;;;5.70;99.90;;;;;;5096223;28;20456;-72
2022/11/03 06:13:52;;;;;;;1999.90;999.90;;;5.70;99.90;;;;;;5095871;28;20456;-71
2022/11/03 06:16:34;;;;;;;1999.90;999.90;;;5.70;99.90;;;;;;5095905;28;20491;-72
2022/11/03 06:19:14;;;;;;;1999.90;999.90;;;5.70;99.90;;;;;;5096355;28;20477;-72
2022/11/03 06:21:43;;;;;;;1999.90;999.90;;;5.70;99.90;;;;;;5095506;28;20955;-72
2022/11/03 06:24:13;;;;;;;1999.90;999.90;;;5.60;99.90;;;;;;5096142;28;20824;-72
2022/11/03 06:26:41;;;;;;;1999.90;999.90;;;5.50;99.90;;;;;;5096033;28;20442;-72
2022/11/03 06:29:13;;;;;;;1999.90;999.90;;;5.40;99.90;;;;;;5095899;28;20473;-71
2022/11/03 06:31:39;;;;;;;1999.90;999.90;;;5.50;99.90;;;;;;5095739;28;20450;-71
2022/11/03 06:34:21;;;;;;;1999.90;999.90;;;5.60;99.90;;;;;;5096008;28;20462;-70
2022/11/03 06:36:48;;;;;;;1999.90;999.90;;;5.50;99.90;;;;;;5096185;28;20438;-71
2022/11/03 06:39:21;;;;;;;1999.90;999.90;;;5.60;99.90;;;;;;5095685;28;20477;-72
2022/11/03 06:41:47;;;;;;;1999.90;999.90;;;5.60;99.90;;;;;;5095708;28;20445;-72
2022/11/03 06:44:22;;;;;;;1999.90;999.90;;;5.60;99.90;;;;;;5095956;28;20523;-72
2022/11/03 06:46:49;;;;;;;1999.90;999.90;;;5.70;99.90;;;;;;5096129;28;20490;-72
2022/11/03 06:49:29;;;;;;;1999.90;999.90;;;5.90;99.90;;;;;;5096020;28;20465;-72
2022/11/03 06:51:56;;;;;;;1999.90;999.90;;;6.00;99.90;;;;;;5095003;28;20536;-72
2022/11/03 06:54:23;;;;;;;1999.90;999.90;;;6.10;99.90;;;;;;5092791;28;20450;-72
2022/11/03 06:56:50;;;;;;;1999.90;999.90;;;6.30;99.90;;;;;;5092646;28;20438;-72
2022/11/03 06:59:19;;;;;;;1999.90;999.90;;;6.40;99.90;;;;;;5092874;28;20485;-72
2022/11/03 07:01:54;;;;;;;1999.90;999.90;;;6.40;99.90;;;;;;5091823;28;20450;-71
2022/11/03 07:04:23;;;;;;;1999.90;999.90;;;6.50;99.90;;;;;;5092153;28;20438;-70
2022/11/03 07:06:51;;;;;;;1999.90;999.90;;;6.60;99.90;;;;;;5092743;28;20821;-71
2022/11/03 07:09:22;;;;;;;1999.90;999.90;;;6.70;99.90;;;;;;5092813;28;20462;-71
2022/11/03 07:11:51;;;;;;;1999.90;999.90;;;6.70;99.90;;;;;;5091913;28;20756;-71
2022/11/03 07:14:21;;;;;;;1999.90;999.90;;;6.80;99.90;;;;;;5092285;28;20446;-72
2022/11/03 07:16:50;;;;;;;1999.90;999.90;;;6.90;99.90;;;;;;5092415;28;20446;-71
2022/11/03 07:19:20;;;;;;;1999.90;999.90;;;7.00;99.90;;;;;;5092543;28;20486;-71
2022/11/03 07:21:50;;;;;;;1999.90;999.90;;;7.10;99.90;;;;;;5091521;28;20445;-71
2022/11/03 07:24:21;;;;;;;1999.90;999.90;;;7.20;99.90;;;;;;5091864;28;21263;-71
2022/11/03 07:26:48;;;;;;;1999.90;999.90;;;7.30;99.90;;;;;;5092391;28;20450;-71
2022/11/03 07:29:21;;;;;;;1999.90;999.90;;;7.40;99.90;;;;;;5092427;28;20470;-71
2022/11/03 07:31:48;;;;;;;1999.90;999.90;;;7.50;99.90;;;;;;5091549;28;20550;-72
2022/11/03 07:34:21;;;;;;;1999.90;999.90;;;7.60;99.90;;;;;;5091957;28;20540;-72
2022/11/03 07:36:49;;;;;;;1999.90;999.90;;;7.70;99.90;;;;;;5092003;28;20456;-71
2022/11/03 07:39:21;;;;;;;1999.90;999.90;;;7.80;99.90;;;;;;5091641;28;20469;-71
2022/11/03 07:41:48;;;;;;;1999.90;999.90;;;7.80;99.90;;;;;;5090948;28;20450;-71
2022/11/03 07:44:19;;;;;;;1999.90;999.90;;;8.00;99.90;;;;;;5091560;28;20456;-71
2022/11/03 07:46:47;;;;;;;1999.90;999.90;;;8.10;99.90;;;;;;5091990;28;20525;-72
2022/11/03 07:49:25;;;;;;;1999.90;999.90;;;8.30;99.90;;;;;;5086129;28;20476;-71
2022/11/03 07:51:53;;;;;;;1999.90;999.90;;;8.40;99.90;;;;;;5081141;28;20450;-71
2022/11/03 07:54:23;;;;;;;1999.90;999.90;;;8.60;99.90;;;;;;5084038;28;20446;-71
2022/11/03 07:56:53;;;;;;;1999.90;999.90;;;8.70;99.90;;;;;;5084672;28;20442;-71
2022/11/03 07:59:23;;;;;;;1999.90;999.90;;;8.70;99.90;;;;;;5088424;28;20516;-71
2022/11/03 08:01:52;;;;;;;1999.90;999.90;;;8.80;99.90;;;;;;5074655;28;20893;-71
2022/11/03 08:04:21;;;;;;;1999.90;999.90;;;8.80;99.90;;;;;;5070770;28;20450;-71
2022/11/03 08:06:48;;;;;;;1999.90;999.90;;;8.90;99.90;;;;;;5069758;28;20454;-71
2022/11/03 08:09:15;;;;;;;1999.90;999.90;;;9.00;99.90;;;;;;5070993;28;20463;-71
2022/11/03 08:11:44;;;;;;;1999.90;999.90;;;9.00;99.90;;;;;;5077080;28;20473;-71
2022/11/03 08:14:11;;;;;;;1999.90;999.90;;;9.20;99.90;;;;;;5080623;28;20458;-72
2022/11/03 08:16:37;;;;;;;1999.90;999.90;;;9.20;99.90;;;;;;5080890;28;21038;-71
2022/11/03 08:19:04;;;;;;;1999.90;999.90;;;9.30;99.90;;;;;;5087459;28;20469;-72
2022/11/03 08:21:31;;;;;;;1999.90;999.90;;;9.40;99.90;;;;;;5089894;28;20478;-71
2022/11/03 08:23:59;;;;;;;1999.90;999.90;;;9.60;99.90;;;;;;5084689;28;20457;-71
2022/11/03 08:26:25;;;;;;;1999.90;999.90;;;9.60;99.90;;;;;;5084911;28;20439;-73
2022/11/03 08:28:54;;;;;;;1999.90;999.90;;;9.80;99.90;;;;;;5084377;28;20474;-72
2022/11/03 08:31:20;;;;;;;1999.90;999.90;;;9.80;99.90;;;;;;5080126;28;20821;-72
2022/11/03 08:33:47;;;;;;;1999.90;999.90;;;10.00;99.90;;;;;;5078548;28;20594;-72
2022/11/03 08:36:14;;;;;;;1999.90;999.90;;;10.00;99.90;;;;;;5085850;28;20457;-72
2022/11/03 08:38:41;;;;;;;1999.90;999.90;;;10.10;99.90;;;;;;5086352;28;20463;-72
2022/11/03 08:41:08;;;;;;;1999.90;999.90;;;10.20;99.90;;;;;;5089530;28;20481;-73
2022/11/03 08:43:34;;;;;;;1999.90;999.90;;;10.30;99.90;;;;;;5075931;28;20439;-72
2022/11/03 08:46:02;;;;;;;1999.90;999.90;;;10.50;99.90;;;;;;5078309;28;20455;-73
2022/11/03 08:48:29;;;;;;;1999.90;999.90;;;10.70;99.90;;;;;;5080187;28;20526;-72
2022/11/03 08:50:56;;;;;;;1999.90;999.90;;;10.80;99.90;;;;;;5084631;28;20435;-71
2022/11/03 08:53:25;;;;;;;1999.90;999.90;;;10.90;99.90;;;;;;5086355;28;20450;-72
2022/11/03 08:55:52;;;;;;;1999.90;999.90;;;11.10;99.90;;;;;;5079593;28;21195;-70
2022/11/03 08:58:20;;;;;;;1999.90;999.90;;;11.20;99.90;;;;;;5084255;28;20457;-71
2022/11/03 09:00:46;;;;;;;1999.90;999.90;;;11.40;99.90;;;;;;5084558;28;20474;-70
2022/11/03 09:03:15;;;;;;;1999.90;999.90;;;11.60;99.90;;;;;;5084475;28;20438;-70
2022/11/03 09:05:42;;;;;;;1999.90;999.90;;;11.80;99.90;;;;;;5086460;28;20974;-71
2022/11/03 09:08:09;;;;;;;1999.90;999.90;;;12.10;99.90;;;;;;5084961;28;20446;-72
2022/11/03 09:10:36;;;;;;;1999.90;999.90;;;12.00;99.90;;;;;;5083659;28;20472;-70
2022/11/03 09:13:02;;;;;;;1999.90;999.90;;;12.10;99.90;;;;;;5085954;28;20446;-69
2022/11/03 09:15:29;;;;;;;1999.90;999.90;;;12.10;99.90;;;;;;5086121;28;20438;-70
2022/11/03 09:17:56;;;;;;;1999.90;999.90;;;12.10;99.90;;;;;;5086591;28;20450;-71
2022/11/03 09:20:24;;;;;;;1999.90;999.90;;;12.20;99.90;;;;;;5083710;28;20493;-71
2022/11/03 09:22:51;;;;;;;1999.90;999.90;;;12.10;99.90;;;;;;5085920;28;20438;-71
2022/11/03 09:25:18;;;;;;;1999.90;999.90;;;12.10;99.90;;;;;;5086728;28;20478;-70
2022/11/03 09:27:45;;;;;;;1999.90;999.90;;;12.30;99.90;;;;;;5087037;28;20855;-71
2022/11/03 09:30:13;;;;;;;1999.90;999.90;;;12.40;99.90;;;;;;5087031;28;20822;-71
2022/11/03 09:32:39;;;;;;;1999.90;999.90;;;12.50;99.90;;;;;;5086091;28;20450;-72
2022/11/03 09:35:07;;;;;;;1999.90;999.90;;;12.60;99.90;;;;;;5085686;28;20450;-70
2022/11/03 09:37:35;;;;;;;1999.90;999.90;;;12.80;99.90;;;;;;5086372;28;20450;-71
2022/11/03 09:40:03;;;;;;;1999.90;999.90;;;13.10;99.90;;;;;;5082630;28;20988;-71
2022/11/03 09:42:33;;;;;;;1999.90;999.90;;;13.30;99.90;;;;;;5079307;28;20438;-72
2022/11/03 09:45:00;;;;;;;1999.90;999.90;;;13.40;99.90;;;;;;5079619;28;20617;-71
2022/11/03 09:47:31;;;;;;;1999.90;999.90;;;13.50;99.90;;;;;;5084666;28;21862;-70
2022/11/03 09:49:58;;;;;;;1999.90;999.90;;;13.70;99.90;;;;;;5079022;28;20474;-71
2022/11/03 09:52:25;;;;;;;1999.90;999.90;;;13.90;99.90;;;;;;5081399;28;20545;-71
2022/11/03 09:54:55;;;;;;;1999.90;999.90;;;14.20;99.90;;;;;;5087015;28;20442;-71
2022/11/03 09:57:22;;;;;;;1999.90;999.90;;;14.30;99.90;;;;;;5086007;28;20992;-71
2022/11/03 09:59:50;;;;;;;1999.90;999.90;;;14.60;99.90;;;;;;5086196;28;20465;-71
2022/11/03 10:02:22;;;;;;;1999.90;999.90;;;14.80;99.90;;;;;;5083598;28;20465;-69
2022/11/03 10:04:51;;;;;;;1999.90;999.90;;;15.10;99.90;;;;;;5078877;28;20453;-73
2022/11/03 10:07:18;;;;;;;1999.90;999.90;;;15.30;99.90;;;;;;5083584;28;20460;-70
2022/11/03 10:09:48;;;;;;;1999.90;999.90;;;15.40;99.90;;;;;;5076999;28;20470;-71
2022/11/03 10:12:17;;;;;;;1999.90;999.90;;;15.40;99.90;;;;;;5077885;28;20442;-71
2022/11/03 10:14:46;;;;;;;1999.90;999.90;;;15.50;99.90;;;;;;5078845;28;20446;-71
2022/11/03 10:17:17;;;;;;;1999.90;999.90;;;15.50;99.90;;;;;;5079971;28;20500;-71
2022/11/03 10:19:49;;;;;;;1999.90;999.90;;;15.40;99.90;;;;;;5078344;28;20562;-70
2022/11/03 10:22:16;;;;;;;1999.90;999.90;;;15.30;99.90;;;;;;5073813;28;20439;-70
2022/11/03 10:24:43;;;;;;;1999.90;999.90;;;15.10;99.90;;;;;;5078436;28;20454;-70
2022/11/03 10:27:26;;;;;;;1999.90;999.90;;;15.20;99.90;;;;;;5078978;28;20439;-71
2022/11/03 10:30:08;;;;;;;1999.90;999.90;;;15.30;99.90;;;;;;5081384;28;20497;-71
2022/11/03 10:32:35;;;;;;;1999.90;999.90;;;15.40;99.90;;;;;;5080720;28;20989;-68
2022/11/03 10:35:03;;;;;;;1999.90;999.90;;;15.20;99.90;;;;;;5082206;28;20450;-69
2022/11/03 10:37:30;;;;;;;1999.90;999.90;;;15.10;99.90;;;;;;5080663;28;20458;-68
2022/11/03 10:39:58;;;;;;;1999.90;999.90;;;15.00;99.90;;;;;;5077033;28;20566;-68
2022/11/03 10:42:29;;;;;;;1999.90;999.90;;;15.00;99.90;;;;;;5076871;28;21089;-68
2022/11/03 10:45:11;;;;;;;1999.90;999.90;;;15.20;99.90;;;;;;5077796;28;20514;-68
2022/11/03 10:47:38;;;;;;;1999.90;999.90;;;15.40;99.90;;;;;;5078840;28;20442;-69
2022/11/03 10:50:21;;;;;;;1999.90;999.90;;;15.30;99.90;;;;;;5082886;28;20488;-68
2022/11/03 10:52:48;;;;;;;1999.90;999.90;;;15.50;99.90;;;;;;5078126;28;20449;-70
2022/11/03 10:55:15;;;;;;;1999.90;999.90;;;15.40;99.90;;;;;;5081330;28;20454;-68
2022/11/03 10:57:44;;;;;;;1999.90;999.90;;;15.50;99.90;;;;;;5075470;28;20557;-69
2022/11/03 11:00:15;;;;;;;1999.90;999.90;;;15.40;99.90;;;;;;5075398;28;22364;-67
2022/11/03 11:02:43;;;;;;;1999.90;999.90;;;15.50;99.90;;;;;;5081826;28;21302;-67
2022/11/03 11:05:15;;;;;;;1999.90;999.90;;;15.40;99.90;;;;;;5078550;28;20820;-68
2022/11/03 11:07:44;;;;;;;1999.90;999.90;;;15.60;99.90;;;;;;5082364;28;20811;-69
2022/11/03 11:10:16;;;;;;;1999.90;999.90;;;15.60;99.90;;;;;;5081187;28;20496;-69
2022/11/03 11:13:20;;;;;;;1999.90;999.90;;;15.60;99.90;;;;;;5083344;28;20533;-70
2022/11/03 11:15:49;;;;;;;1999.90;999.90;;;15.60;99.90;;;;;;5076682;28;20449;-67
2022/11/03 11:19:02;;;;;;;1999.90;999.90;;;15.70;99.90;;;;;;5084942;28;20452;-66
2022/11/03 11:21:51;;;;;;;1999.90;999.90;;;15.60;99.90;;;;;;5040945;28;20618;-68
2022/11/03 11:24:51;;;;;;;1999.90;999.90;;;15.60;99.90;;;;;;5077850;27;20468;-67
2022/11/03 11:27:56;;;;;;;1999.90;999.90;;;15.70;99.90;;;;;;5088406;28;20448;-68
2022/11/03 11:31:03;;;;;;;1999.90;999.90;;;15.40;99.90;;;;;;5089298;28;20457;-67
2022/11/03 11:33:34;;;;;;;1999.90;999.90;;;15.40;99.90;;;;;;5084248;28;20972;-68
2022/11/03 11:36:20;;;;;;;1999.90;999.90;;;15.40;99.90;;;;;;5081317;28;20450;-67
2022/11/03 11:39:04;;;;;;;1999.90;999.90;;;15.40;99.90;;;;;;5082245;28;20523;-67
2022/11/03 11:42:09;;;;;;;1999.90;999.90;;;15.50;99.90;;;;;;5087262;28;20484;-67
2022/11/03 11:45:01;;;;;;;1999.90;999.90;;;15.70;99.90;;;;;;5084013;28;20450;-67
2022/11/03 11:47:49;;;;;;;1999.90;999.90;;;15.70;99.90;;;;;;5082568;28;20507;-68
2022/11/03 11:50:32;;;;;;;1999.90;999.90;;;15.60;99.90;;;;;;5079630;28;20496;-68
2022/11/03 11:53:19;;;;;;;1999.90;999.90;;;15.50;99.90;;;;;;5078416;28;20541;-68
2022/11/03 11:55:50;;;;;;;1999.90;999.90;;;15.70;99.90;;;;;;5078355;28;20447;-68
2022/11/03 11:58:22;;;;;;;1999.90;999.90;;;15.80;99.90;;;;;;5074487;28;20459;-69
2022/11/03 12:00:55;;;;;;;1999.90;999.90;;;15.70;99.90;;;;;;5075583;28;20480;-67
2022/11/03 12:03:38;;;;;;;1999.90;999.90;;;15.90;99.90;;;;;;5075984;28;20459;-68
2022/11/03 12:06:08;;;;;;;1999.90;999.90;;;16.00;99.90;;;;;;5075436;28;20442;-68
2022/11/03 12:08:35;;;;;;;1999.90;999.90;;;16.10;99.90;;;;;;5085372;28;20443;-68
2022/11/03 12:11:03;;;;;;;1999.90;999.90;;;16.10;99.90;;;;;;5086370;28;21069;-68
2022/11/03 12:13:50;;;;;;;1999.90;999.90;;;16.00;99.90;;;;;;5085867;28;20443;-68
2022/11/03 12:16:33;;;;;;;1999.90;999.90;;;15.90;99.90;;;;;;5084072;28;21148;-68
2022/11/03 12:19:39;;;;;;;1999.90;999.90;;;15.80;99.90;;;;;;5087625;28;20458;-67
2022/11/03 12:22:09;;;;;;;1999.90;999.90;;;15.70;99.90;;;;;;5086957;28;20860;-68
2022/11/03 12:24:50;;;;;;;1999.90;999.90;;;15.80;99.90;;;;;;5088207;28;20810;-68
2022/11/03 12:27:20;;;;;;;1999.90;999.90;;;15.50;99.90;;;;;;5086387;28;20459;-68
2022/11/03 12:29:47;;;;;;;1999.90;999.90;;;15.30;99.90;;;;;;5077135;28;20479;-69
2022/11/03 12:32:16;;;;;;;1999.90;999.90;;;15.30;99.90;;;;;;5077226;28;20446;-69
2022/11/03 12:34:44;;;;;;;1999.90;999.90;;;15.10;99.90;;;;;;5074348;28;20451;-67
2022/11/03 12:37:12;;;;;;;1999.90;999.90;;;14.90;99.90;;;;;;5074949;28;20530;-67